Time;durP1;ratioP1;P1;durP2;ratioP2;P2;SDS_P1;SDS_P2;PMS_P1;PMS_P2;Temp;Humidity;BMP_temperature;BMP_pressure;BME280_temperature;BME280_humidity;BME280_pressure;Samples;Min_cycle;Max_cycle;Signal;HPM_P1;HPM_P2
2022/12/24 00:01:32;;;;;;;40.03;5.32;;;;;;;;;;4988633;28;20037;-94
2022/12/24 00:03:57;;;;;;;28.40;4.55;;;;;;;;;;5016691;28;20188;-95
2022/12/24 00:06:23;;;;;;;24.17;4.28;;;;;;;;;;4994085;28;20077;-92
2022/12/24 00:08:52;;;;;;;27.52;4.97;;;;;;;;;;4987503;28;20065;-93
2022/12/24 00:11:18;;;;;;;29.70;3.78;;;;;;;;;;4986390;28;20030;-93
2022/12/24 00:13:43;;;;;;;24.27;4.15;;;;;;;;;;4986675;28;20128;-93
2022/12/24 00:16:08;;;;;;;23.73;3.95;;;;;;;;;;4988711;28;20026;-93
2022/12/24 00:18:34;;;;;;;25.73;3.75;;;;;;;;;;4989819;28;20038;-92
2022/12/24 00:21:02;;;;;;;19.63;3.95;;;;;;;;;;5005079;28;20132;-92
2022/12/24 00:23:28;;;;;;;20.17;3.83;;;;;;;;;;5004568;28;20037;-94
2022/12/24 00:25:59;;;;;;;21.42;3.95;;;;;;;;;;4992778;28;20075;-94
2022/12/24 00:28:25;;;;;;;20.75;3.10;;;;;;;;;;4986444;28;20077;-92
2022/12/24 00:30:50;;;;;;;20.67;4.00;;;;;;;;;;4991472;28;20038;-92
2022/12/24 00:33:15;;;;;;;19.45;3.90;;;;;;;;;;4990840;28;20113;-94
2022/12/24 00:35:41;;;;;;;24.67;3.65;;;;;;;;;;4991756;28;20156;-93
2022/12/24 00:38:06;;;;;;;28.48;3.92;;;;;;;;;;4993164;28;20029;-92
2022/12/24 00:40:32;;;;;;;24.83;3.92;;;;;;;;;;4986784;28;20030;-93
2022/12/24 00:42:58;;;;;;;19.40;3.13;;;;;;;;;;4987085;28;20026;-94
2022/12/24 00:45:24;;;;;;;27.33;3.40;;;;;;;;;;4999714;28;20132;-92
2022/12/24 00:47:49;;;;;;;21.60;3.65;;;;;;;;;;4986944;28;20028;-93
2022/12/24 00:50:14;;;;;;;17.33;3.50;;;;;;;;;;4982171;28;21343;-92
2022/12/24 00:52:40;;;;;;;17.98;3.10;;;;;;;;;;4983331;28;20576;-92
2022/12/24 00:55:05;;;;;;;27.58;4.63;;;;;;;;;;4994712;28;20398;-93
2022/12/24 00:57:30;;;;;;;28.05;5.30;;;;;;;;;;4988096;28;20718;-92
2022/12/24 00:59:56;;;;;;;24.25;3.45;;;;;;;;;;4990501;28;20394;-92
2022/12/24 01:02:21;;;;;;;23.23;4.03;;;;;;;;;;5004269;28;20154;-93
2022/12/24 01:07:30;;;;;;;21.05;3.38;;;;;;;;;;4993276;28;20060;-94
2022/12/24 01:09:56;;;;;;;16.13;3.13;;;;;;;;;;4983463;28;20029;-93
2022/12/24 01:12:21;;;;;;;14.50;3.03;;;;;;;;;;4984561;28;20100;-93
2022/12/24 01:14:46;;;;;;;17.98;3.28;;;;;;;;;;4986449;28;20153;-93
2022/12/24 01:17:15;;;;;;;19.70;3.28;;;;;;;;;;4981459;28;20042;-92
2022/12/24 01:19:40;;;;;;;14.07;2.70;;;;;;;;;;4983709;28;20060;-92
2022/12/24 01:22:05;;;;;;;12.68;2.90;;;;;;;;;;4984881;28;20042;-92
2022/12/24 01:24:31;;;;;;;12.30;2.60;;;;;;;;;;4987953;28;20216;-92
2022/12/24 01:26:56;;;;;;;11.48;2.00;;;;;;;;;;4981825;28;20030;-92
2022/12/24 01:29:22;;;;;;;10.07;2.00;;;;;;;;;;4984166;28;20060;-93
2022/12/24 01:31:47;;;;;;;12.18;1.70;;;;;;;;;;5000190;28;20146;-93
2022/12/24 01:34:13;;;;;;;9.40;1.38;;;;;;;;;;4982062;28;20088;-91
2022/12/24 01:36:38;;;;;;;11.98;2.38;;;;;;;;;;4986122;28;20046;-93
2022/12/24 01:39:03;;;;;;;10.40;1.60;;;;;;;;;;4985733;28;20506;-92
2022/12/24 01:44:22;;;;;;;9.30;1.70;;;;;;;;;;4999041;28;20783;-92
2022/12/24 01:46:52;;;;;;;12.15;2.47;;;;;;;;;;4983529;28;20029;-91
2022/12/24 01:49:18;;;;;;;14.32;2.20;;;;;;;;;;4978493;28;20018;-92
2022/12/24 01:51:46;;;;;;;11.60;2.00;;;;;;;;;;4976432;28;20018;-92
2022/12/24 01:54:16;;;;;;;16.48;2.55;;;;;;;;;;4987002;28;20026;-93
2022/12/24 01:56:55;;;;;;;11.82;2.22;;;;;;;;;;5001413;28;20809;-93
2022/12/24 01:59:22;;;;;;;10.07;2.55;;;;;;;;;;4984648;28;20066;-92
2022/12/24 02:01:48;;;;;;;12.40;2.05;;;;;;;;;;4986975;28;20026;-93
2022/12/24 02:04:32;;;;;;;12.25;1.90;;;;;;;;;;4987029;28;20401;-92
2022/12/24 02:06:58;;;;;;;14.07;2.15;;;;;;;;;;4997430;28;20096;-92
2022/12/24 02:09:26;;;;;;;13.57;2.10;;;;;;;;;;4986561;28;20033;-92
2022/12/24 02:11:52;;;;;;;12.73;2.03;;;;;;;;;;5007442;28;20030;-90
2022/12/24 02:14:17;;;;;;;9.95;2.35;;;;;;;;;;4992010;28;20044;-93
2022/12/24 02:16:42;;;;;;;18.77;2.70;;;;;;;;;;4992207;28;20475;-92
2022/12/24 02:19:27;;;;;;;19.45;2.45;;;;;;;;;;4986949;28;20029;-94
2022/12/24 02:22:06;;;;;;;10.80;2.10;;;;;;;;;;5004344;28;20030;-93
2022/12/24 02:24:50;;;;;;;10.73;2.00;;;;;;;;;;5003982;28;20026;-93
2022/12/24 02:27:15;;;;;;;;;;;;;;;;;;5004326;28;20034;-93
2022/12/24 02:30:00;;;;;;;13.18;2.20;;;;;;;;;;5000776;28;19917;-93
2022/12/24 02:32:35;;;;;;;15.88;2.55;;;;;;;;;;4985085;28;20056;-92
2022/12/24 02:35:22;;;;;;;17.48;3.00;;;;;;;;;;4982585;28;20073;-93
2022/12/24 02:37:53;;;;;;;13.30;2.70;;;;;;;;;;4987016;28;20037;-94
2022/12/24 02:40:27;;;;;;;19.48;3.00;;;;;;;;;;4992268;28;20073;-94
2022/12/24 02:42:52;;;;;;;;;;;;;;;;;;5008332;28;20500;-92
2022/12/24 02:45:20;;;;;;;14.87;2.47;;;;;;;;;;5009361;28;19964;-93
2022/12/24 02:47:47;;;;;;;14.98;2.53;;;;;;;;;;4992440;28;20040;-91
2022/12/24 02:50:14;;;;;;;11.43;2.67;;;;;;;;;;4990402;28;20056;-91
2022/12/24 02:52:41;;;;;;;12.43;2.78;;;;;;;;;;4990176;28;20117;-93
2022/12/24 02:55:15;;;;;;;10.50;2.80;;;;;;;;;;4989333;28;20034;-95
2022/12/24 02:58:02;;;;;;;15.93;2.80;;;;;;;;;;5007308;28;20113;-93
2022/12/24 03:03:21;;;;;;;12.27;2.25;;;;;;;;;;5309055;23;20058;-96
2022/12/24 03:05:48;;;;;;;12.70;2.90;;;;;;;;;;5001870;28;20068;-94
2022/12/24 03:08:34;;;;;;;15.45;2.72;;;;;;;;;;5015621;28;20506;-95
2022/12/24 03:11:04;;;;;;;13.40;2.42;;;;;;;;;;5008415;28;20061;-95
2022/12/24 03:13:29;;;;;;;10.40;2.05;;;;;;;;;;5029394;28;20098;-94
2022/12/24 03:15:54;;;;;;;12.35;1.80;;;;;;;;;;5008510;28;20550;-94
2022/12/24 03:18:22;;;;;;;8.30;1.90;;;;;;;;;;5006795;28;20029;-94
2022/12/24 03:20:59;;;;;;;10.80;2.10;;;;;;;;;;5013302;28;20483;-95
2022/12/24 03:23:24;;;;;;;10.80;1.90;;;;;;;;;;5026754;28;20332;-94
2022/12/24 03:25:50;;;;;;;7.75;1.90;;;;;;;;;;5004284;28;20017;-94
2022/12/24 03:28:16;;;;;;;10.27;1.83;;;;;;;;;;5003265;28;20143;-95
2022/12/24 03:30:42;;;;;;;11.90;1.60;;;;;;;;;;5003214;28;20049;-94
2022/12/24 03:33:08;;;;;;;12.43;1.80;;;;;;;;;;4999244;28;20115;-95
2022/12/24 03:35:33;;;;;;;7.03;1.40;;;;;;;;;;5017321;28;20468;-95
2022/12/24 03:37:59;;;;;;;7.80;1.48;;;;;;;;;;5000787;28;20140;-96
2022/12/24 03:40:24;;;;;;;13.32;1.77;;;;;;;;;;4997758;28;20568;-94
2022/12/24 03:42:49;;;;;;;11.10;1.90;;;;;;;;;;5005546;28;20488;-95
2022/12/24 03:45:15;;;;;;;8.57;1.60;;;;;;;;;;4999959;28;20049;-96
2022/12/24 03:47:40;;;;;;;8.40;1.23;;;;;;;;;;4999222;28;20049;-96
2022/12/24 03:50:05;;;;;;;8.40;1.33;;;;;;;;;;5017333;28;20032;-95
2022/12/24 03:52:31;;;;;;;10.02;1.80;;;;;;;;;;4998258;28;20270;-94
2022/12/24 03:54:56;;;;;;;9.55;1.60;;;;;;;;;;4999242;28;20030;-95
2022/12/24 03:57:21;;;;;;;8.20;1.27;;;;;;;;;;4999989;28;20033;-96
2022/12/24 03:59:47;;;;;;;9.25;1.33;;;;;;;;;;5001811;28;20270;-95
2022/12/24 04:02:12;;;;;;;12.63;1.55;;;;;;;;;;5007922;28;20045;-95
2022/12/24 04:04:37;;;;;;;11.77;1.90;;;;;;;;;;4999117;28;20025;-96
2022/12/24 04:07:03;;;;;;;8.77;1.30;;;;;;;;;;5016971;28;20285;-96
2022/12/24 04:09:28;;;;;;;10.82;1.83;;;;;;;;;;5015069;28;20025;-96
2022/12/24 04:11:54;;;;;;;8.98;1.67;;;;;;;;;;5002572;28;20030;-95
2022/12/24 04:14:20;;;;;;;8.95;1.70;;;;;;;;;;5019730;28;20055;-96
2022/12/24 04:16:45;;;;;;;11.23;1.80;;;;;;;;;;5004931;28;20049;-96
2022/12/24 04:19:10;;;;;;;9.10;1.83;;;;;;;;;;5023930;28;20042;-95
2022/12/24 04:21:36;;;;;;;9.20;1.93;;;;;;;;;;5003898;28;20029;-96
2022/12/24 04:24:01;;;;;;;11.90;1.70;;;;;;;;;;5002072;28;20274;-95
2022/12/24 04:26:26;;;;;;;8.45;1.67;;;;;;;;;;5016439;28;20504;-96
2022/12/24 04:28:51;;;;;;;10.43;2.33;;;;;;;;;;5023708;28;20018;-96
2022/12/24 04:31:17;;;;;;;9.02;1.67;;;;;;;;;;5010135;28;20105;-96
2022/12/24 04:33:43;;;;;;;10.05;1.75;;;;;;;;;;5002899;28;20435;-96
2022/12/24 04:36:11;;;;;;;6.85;1.70;;;;;;;;;;4998134;28;20045;-96
2022/12/24 04:38:36;;;;;;;12.88;1.90;;;;;;;;;;5024363;28;20030;-96
2022/12/24 04:41:04;;;;;;;16.25;2.78;;;;;;;;;;5020871;28;20018;-95
2022/12/24 04:43:29;;;;;;;8.27;1.50;;;;;;;;;;5003865;28;20038;-96
2022/12/24 04:45:55;;;;;;;10.82;1.88;;;;;;;;;;5019198;28;20045;-96
2022/12/24 04:48:21;;;;;;;11.40;1.80;;;;;;;;;;5000301;28;20025;-96
2022/12/24 04:50:49;;;;;;;14.30;1.80;;;;;;;;;;5000481;28;20104;-95
2022/12/24 04:53:14;;;;;;;13.60;1.90;;;;;;;;;;5004651;28;20075;-95
2022/12/24 04:55:46;;;;;;;10.60;1.85;;;;;;;;;;5018198;28;20137;-96
2022/12/24 04:58:12;;;;;;;10.77;1.90;;;;;;;;;;5004318;28;20033;-95
2022/12/24 05:00:38;;;;;;;14.98;1.80;;;;;;;;;;4998018;28;20518;-95
2022/12/24 05:03:04;;;;;;;10.70;1.40;;;;;;;;;;5000124;28;20096;-95
2022/12/24 05:05:29;;;;;;;11.90;1.83;;;;;;;;;;4996067;28;20472;-96
2022/12/24 05:07:54;;;;;;;10.60;1.70;;;;;;;;;;4999653;28;20108;-95
2022/12/24 05:10:20;;;;;;;7.80;1.30;;;;;;;;;;5012470;28;20018;-95
2022/12/24 05:12:45;;;;;;;10.02;1.58;;;;;;;;;;5015152;28;20065;-96
2022/12/24 05:15:10;;;;;;;11.00;1.80;;;;;;;;;;5006856;28;20032;-94
2022/12/24 05:17:36;;;;;;;7.20;1.60;;;;;;;;;;5024130;28;20270;-96
2022/12/24 05:20:01;;;;;;;11.77;2.00;;;;;;;;;;5015067;28;20108;-95
2022/12/24 05:27:55;;;;;;;17.08;2.50;;;;;;;;;;5016684;28;20508;-96
2022/12/24 05:30:21;;;;;;;9.25;1.80;;;;;;;;;;4999245;28;20056;-95
2022/12/24 05:32:46;;;;;;;13.85;1.40;;;;;;;;;;5000847;28;20013;-95
2022/12/24 05:35:12;;;;;;;8.40;1.60;;;;;;;;;;5025911;28;20049;-96
2022/12/24 05:37:41;;;;;;;12.57;1.80;;;;;;;;;;5023067;28;20073;-96
2022/12/24 05:40:06;;;;;;;12.95;1.58;;;;;;;;;;4999894;28;20107;-95
2022/12/24 05:42:31;;;;;;;11.70;1.80;;;;;;;;;;4998399;28;20034;-94
2022/12/24 05:44:57;;;;;;;9.95;1.85;;;;;;;;;;5028183;28;20044;-94
2022/12/24 05:47:22;;;;;;;12.10;2.20;;;;;;;;;;5012266;28;20106;-95
2022/12/24 05:49:47;;;;;;;14.47;2.17;;;;;;;;;;5026361;28;20041;-96
2022/12/24 05:52:12;;;;;;;13.00;1.67;;;;;;;;;;5009524;28;20278;-95
2022/12/24 05:54:38;;;;;;;8.30;2.25;;;;;;;;;;5010770;28;21029;-95
2022/12/24 05:57:07;;;;;;;12.43;1.85;;;;;;;;;;5009485;28;20064;-95
2022/12/24 05:59:32;;;;;;;17.98;2.60;;;;;;;;;;5003547;28;20033;-94
2022/12/24 06:01:57;;;;;;;9.70;1.65;;;;;;;;;;5002003;28;20429;-96
2022/12/24 06:04:22;;;;;;;12.25;1.65;;;;;;;;;;4981234;28;20081;-95
2022/12/24 06:06:48;;;;;;;13.20;1.88;;;;;;;;;;4979403;28;20106;-95
2022/12/24 06:09:14;;;;;;;9.65;1.50;;;;;;;;;;4978428;28;20053;-94
2022/12/24 06:11:39;;;;;;;13.48;1.90;;;;;;;;;;4976996;28;20061;-96
2022/12/24 06:14:04;;;;;;;8.75;1.70;;;;;;;;;;4981235;28;20030;-95
2022/12/24 06:16:31;;;;;;;13.77;1.60;;;;;;;;;;4987694;28;20034;-96
2022/12/24 06:18:58;;;;;;;20.33;3.42;;;;;;;;;;4985165;28;20271;-95
2022/12/24 06:21:23;;;;;;;11.93;2.10;;;;;;;;;;4977485;28;20042;-95
2022/12/24 06:23:48;;;;;;;9.65;1.83;;;;;;;;;;4988771;28;20058;-96
2022/12/24 06:26:15;;;;;;;12.02;1.70;;;;;;;;;;5003406;28;20056;-96
2022/12/24 06:28:41;;;;;;;13.32;1.77;;;;;;;;;;4984355;28;20022;-95
2022/12/24 06:31:09;;;;;;;13.07;2.08;;;;;;;;;;4979603;28;20030;-96
2022/12/24 06:33:35;;;;;;;18.35;2.20;;;;;;;;;;4998845;28;20028;-96
2022/12/24 06:36:00;;;;;;;10.55;1.95;;;;;;;;;;4983481;28;20404;-95
2022/12/24 06:38:25;;;;;;;11.63;1.73;;;;;;;;;;4986871;28;20519;-96
2022/12/24 06:40:51;;;;;;;16.02;1.60;;;;;;;;;;4988412;28;20566;-96
2022/12/24 06:43:16;;;;;;;17.05;1.95;;;;;;;;;;4981356;28;20034;-95
2022/12/24 06:45:45;;;;;;;11.30;1.95;;;;;;;;;;4984728;28;20559;-95
2022/12/24 06:48:11;;;;;;;14.55;2.17;;;;;;;;;;4979347;28;20113;-96
2022/12/24 06:50:36;;;;;;;17.48;2.50;;;;;;;;;;4980757;28;20589;-95
2022/12/24 06:53:02;;;;;;;19.48;2.53;;;;;;;;;;4979707;28;20022;-96
2022/12/24 06:55:28;;;;;;;16.42;2.15;;;;;;;;;;4998197;28;20025;-96
2022/12/24 06:57:54;;;;;;;11.27;2.38;;;;;;;;;;4978847;28;20051;-94
2022/12/24 07:00:20;;;;;;;19.90;2.30;;;;;;;;;;4997111;28;20022;-94
2022/12/24 07:02:46;;;;;;;10.50;1.73;;;;;;;;;;4985609;28;20053;-93
2022/12/24 07:05:12;;;;;;;17.90;2.25;;;;;;;;;;5017998;28;20068;-96
2022/12/24 07:07:38;;;;;;;10.63;2.22;;;;;;;;;;5000395;28;20476;-95
2022/12/24 07:10:03;;;;;;;10.90;2.00;;;;;;;;;;4992389;28;20734;-95
2022/12/24 07:12:29;;;;;;;13.27;1.90;;;;;;;;;;5011912;28;20022;-96
2022/12/24 07:14:54;;;;;;;12.93;1.80;;;;;;;;;;5001215;28;20026;-96
2022/12/24 07:17:19;;;;;;;19.85;2.13;;;;;;;;;;5002603;28;20102;-96
2022/12/24 07:19:44;;;;;;;13.88;2.25;;;;;;;;;;4997174;28;20029;-96
2022/12/24 07:22:10;;;;;;;22.60;3.53;;;;;;;;;;5008547;28;20045;-96
2022/12/24 07:24:35;;;;;;;15.32;2.63;;;;;;;;;;5004774;28;20067;-94
2022/12/24 07:27:02;;;;;;;10.75;1.90;;;;;;;;;;5000525;28;20444;-95
2022/12/24 07:29:27;;;;;;;18.40;2.10;;;;;;;;;;4998968;28;20048;-93
2022/12/24 07:31:54;;;;;;;13.40;2.10;;;;;;;;;;4996581;28;20063;-93
2022/12/24 07:34:19;;;;;;;10.73;1.80;;;;;;;;;;4998972;28;20361;-96
2022/12/24 07:36:44;;;;;;;12.90;1.90;;;;;;;;;;5001979;28;20104;-96
2022/12/24 07:39:09;;;;;;;16.02;2.33;;;;;;;;;;5008798;28;20286;-96
2022/12/24 07:41:35;;;;;;;13.80;2.00;;;;;;;;;;5002283;28;20054;-95
2022/12/24 07:44:00;;;;;;;12.65;2.00;;;;;;;;;;5020978;28;20312;-96
2022/12/24 07:46:25;;;;;;;16.15;2.10;;;;;;;;;;5017617;28;20014;-96
2022/12/24 07:48:50;;;;;;;12.45;2.20;;;;;;;;;;5018011;28;20022;-96
2022/12/24 07:51:16;;;;;;;12.50;1.80;;;;;;;;;;5017486;28;20025;-96
2022/12/24 07:53:46;;;;;;;15.90;2.08;;;;;;;;;;4998561;28;20033;-94
2022/12/24 07:56:12;;;;;;;20.83;2.60;;;;;;;;;;5009108;28;20113;-94
2022/12/24 07:58:37;;;;;;;16.35;2.17;;;;;;;;;;5016472;28;20077;-94
2022/12/24 08:01:02;;;;;;;14.70;2.80;;;;;;;;;;4997236;28;20021;-95
2022/12/24 08:03:28;;;;;;;25.95;2.65;;;;;;;;;;5000309;28;20157;-95
2022/12/24 08:05:53;;;;;;;15.35;2.63;;;;;;;;;;5019369;28;20508;-95
2022/12/24 08:08:19;;;;;;;13.98;2.58;;;;;;;;;;5014978;28;20056;-95
2022/12/24 08:10:44;;;;;;;12.77;2.50;;;;;;;;;;5007156;28;20469;-96
2022/12/24 08:13:09;;;;;;;19.73;2.95;;;;;;;;;;5002691;28;20044;-96
2022/12/24 08:15:36;;;;;;;13.80;2.33;;;;;;;;;;5023010;28;20032;-95
2022/12/24 08:18:01;;;;;;;12.98;1.92;;;;;;;;;;5009702;28;20018;-94
2022/12/24 08:20:26;;;;;;;14.48;2.30;;;;;;;;;;5005147;28;20033;-95
2022/12/24 08:22:54;;;;;;;12.13;2.00;;;;;;;;;;5012184;28;20555;-96
2022/12/24 08:25:19;;;;;;;16.65;3.05;;;;;;;;;;5024548;28;20029;-95
2022/12/24 08:27:45;;;;;;;16.23;3.00;;;;;;;;;;5008790;28;20026;-94
2022/12/24 08:30:10;;;;;;;20.70;2.97;;;;;;;;;;5016665;28;20515;-95
2022/12/24 08:32:36;;;;;;;14.00;2.45;;;;;;;;;;5022755;28;20018;-95
2022/12/24 08:35:01;;;;;;;15.30;2.58;;;;;;;;;;5023016;28;20116;-95
2022/12/24 08:37:27;;;;;;;13.90;2.17;;;;;;;;;;5007495;28;20396;-95
2022/12/24 08:39:52;;;;;;;16.98;2.65;;;;;;;;;;5010166;28;20070;-95
2022/12/24 08:42:18;;;;;;;16.50;2.27;;;;;;;;;;5027198;28;20481;-95
2022/12/24 08:44:43;;;;;;;17.35;2.58;;;;;;;;;;4999556;28;20736;-95
2022/12/24 08:47:08;;;;;;;20.67;2.85;;;;;;;;;;5015544;28;20029;-95
2022/12/24 08:49:34;;;;;;;25.47;3.00;;;;;;;;;;5029657;28;20427;-95
2022/12/24 08:52:07;;;;;;;16.77;2.53;;;;;;;;;;5001057;28;20630;-94
2022/12/24 08:54:32;;;;;;;;;;;;;;;;;;5009496;28;20311;-95
2022/12/24 08:56:57;;;;;;;17.30;2.40;;;;;;;;;;5000155;28;20423;-95
2022/12/24 08:59:23;;;;;;;19.17;3.73;;;;;;;;;;5010316;28;20044;-96
2022/12/24 09:01:48;;;;;;;14.87;2.40;;;;;;;;;;5000708;28;20256;-96
2022/12/24 09:04:13;;;;;;;23.25;2.78;;;;;;;;;;5012551;28;20331;-95
2022/12/24 09:06:38;;;;;;;17.30;2.80;;;;;;;;;;5028791;28;20041;-96
2022/12/24 09:09:04;;;;;;;16.40;2.27;;;;;;;;;;4999516;28;20072;-95
2022/12/24 09:11:29;;;;;;;15.93;2.92;;;;;;;;;;5014102;28;20286;-94
2022/12/24 09:13:55;;;;;;;17.75;2.50;;;;;;;;;;5008433;28;20500;-95
2022/12/24 09:16:23;;;;;;;14.13;2.40;;;;;;;;;;5032577;28;20029;-95
2022/12/24 09:18:48;;;;;;;19.08;2.67;;;;;;;;;;5022509;28;20741;-95
2022/12/24 09:21:14;;;;;;;25.20;3.13;;;;;;;;;;5030754;28;20101;-96
2022/12/24 09:23:41;;;;;;;18.27;2.30;;;;;;;;;;5024963;28;20026;-95
2022/12/24 09:26:08;;;;;;;21.25;2.92;;;;;;;;;;5002602;28;20610;-95
2022/12/24 09:28:34;;;;;;;18.45;2.22;;;;;;;;;;5013857;28;20377;-94
2022/12/24 09:31:00;;;;;;;21.80;2.65;;;;;;;;;;5005930;28;20018;-95
2022/12/24 09:33:26;;;;;;;15.43;2.28;;;;;;;;;;4996307;28;20477;-95
2022/12/24 09:35:52;;;;;;;14.65;1.98;;;;;;;;;;4998252;28;20017;-96
2022/12/24 09:38:18;;;;;;;15.18;2.47;;;;;;;;;;5018687;28;20030;-96
2022/12/24 09:40:43;;;;;;;21.05;3.08;;;;;;;;;;5003405;28;20025;-95
2022/12/24 09:43:23;;;;;;;16.77;2.53;;;;;;;;;;5010824;28;20034;-95
2022/12/24 09:46:09;;;;;;;17.08;2.17;;;;;;;;;;5011886;28;20428;-94
2022/12/24 09:48:37;;;;;;;17.85;2.40;;;;;;;;;;4990382;28;20021;-95
2022/12/24 09:51:35;;;;;;;16.65;2.20;;;;;;;;;;5007057;28;20029;-94
2022/12/24 09:54:24;;;;;;;20.65;3.03;;;;;;;;;;4959969;28;20499;-94
2022/12/24 09:56:49;;;;;;;18.70;2.42;;;;;;;;;;5009355;28;20045;-94
2022/12/24 09:59:23;;;;;;;19.50;2.70;;;;;;;;;;5011169;28;20148;-94
2022/12/24 10:01:49;;;;;;;19.33;2.40;;;;;;;;;;5001581;28;20037;-94
2022/12/24 10:04:16;;;;;;;17.55;2.50;;;;;;;;;;5001733;28;20046;-91
2022/12/24 10:06:50;;;;;;;13.25;2.47;;;;;;;;;;4987069;28;20026;-95
2022/12/24 10:09:34;;;;;;;15.35;2.75;;;;;;;;;;4994163;28;20022;-96
2022/12/24 10:12:10;;;;;;;21.70;2.92;;;;;;;;;;4990381;28;20022;-95
2022/12/24 10:14:42;;;;;;;15.57;2.42;;;;;;;;;;4982434;28;20042;-95
2022/12/24 10:17:16;;;;;;;17.52;2.58;;;;;;;;;;4992574;28;20052;-95
2022/12/24 10:19:47;;;;;;;15.98;2.58;;;;;;;;;;4990386;28;20037;-96
2022/12/24 10:22:23;;;;;;;12.60;2.03;;;;;;;;;;5023289;28;20053;-96
2022/12/24 10:24:56;;;;;;;17.00;2.75;;;;;;;;;;4988867;28;20100;-96
2022/12/24 10:27:24;;;;;;;16.02;3.08;;;;;;;;;;4988428;28;20109;-96
2022/12/24 10:29:57;;;;;;;13.65;2.40;;;;;;;;;;5006663;28;20026;-95
2022/12/24 10:32:28;;;;;;;14.85;3.03;;;;;;;;;;5014011;28;20033;-93
2022/12/24 10:35:12;;;;;;;18.48;2.63;;;;;;;;;;5010725;28;20044;-95
2022/12/24 10:37:37;;;;;;;13.25;2.20;;;;;;;;;;4997864;28;20057;-94
2022/12/24 10:40:03;;;;;;;13.93;2.50;;;;;;;;;;4998606;28;20026;-94
2022/12/24 10:42:36;;;;;;;18.52;2.78;;;;;;;;;;4993711;28;20254;-94
2022/12/24 10:45:02;;;;;;;17.00;3.25;;;;;;;;;;4996094;28;20030;-96
2022/12/24 10:47:28;;;;;;;18.25;2.83;;;;;;;;;;4979988;28;20032;-95
2022/12/24 10:50:18;;;;;;;14.02;2.40;;;;;;;;;;4976268;28;20120;-94
2022/12/24 10:52:45;;;;;;;22.63;2.50;;;;;;;;;;4972048;28;20049;-94
2022/12/24 10:55:21;;;;;;;21.25;2.97;;;;;;;;;;4979627;28;20041;-94
2022/12/24 10:57:55;;;;;;;17.55;2.75;;;;;;;;;;4990042;28;20740;-93
2022/12/24 11:00:21;;;;;;;18.05;2.33;;;;;;;;;;4996110;28;20036;-96
2022/12/24 11:02:47;;;;;;;17.42;2.40;;;;;;;;;;4995722;28;20055;-95
2022/12/24 11:05:30;;;;;;;21.10;3.03;;;;;;;;;;5018358;28;20072;-96
2022/12/24 11:07:59;;;;;;;18.50;2.67;;;;;;;;;;5003137;28;20068;-96
2022/12/24 11:10:27;;;;;;;18.50;3.15;;;;;;;;;;5025355;28;20060;-96
2022/12/24 11:12:52;;;;;;;19.27;2.60;;;;;;;;;;5010503;28;20033;-95
2022/12/24 11:15:27;;;;;;;15.00;2.33;;;;;;;;;;5010706;28;20029;-95
2022/12/24 11:17:55;;;;;;;23.95;2.80;;;;;;;;;;5001742;28;20028;-96
2022/12/24 11:20:23;;;;;;;17.92;2.65;;;;;;;;;;5005960;28;20033;-96
2022/12/24 11:22:48;;;;;;;15.13;2.80;;;;;;;;;;5021905;28;20068;-96
2022/12/24 11:25:23;;;;;;;19.80;2.88;;;;;;;;;;5008148;28;20033;-94
2022/12/24 11:27:50;;;;;;;22.95;3.42;;;;;;;;;;5019155;28;20025;-96
2022/12/24 11:30:15;;;;;;;18.27;2.80;;;;;;;;;;5020788;28;20045;-96
2022/12/24 11:32:48;;;;;;;17.10;3.10;;;;;;;;;;5005288;28;20017;-96
2022/12/24 11:35:16;;;;;;;17.87;2.57;;;;;;;;;;5004270;28;20794;-96
2022/12/24 11:37:43;;;;;;;20.60;2.72;;;;;;;;;;5005186;28;20889;-96
2022/12/24 11:40:19;;;;;;;19.42;3.00;;;;;;;;;;5019767;28;20058;-93
2022/12/24 11:42:44;;;;;;;16.10;2.38;;;;;;;;;;4998656;28;20068;-94
2022/12/24 11:45:29;;;;;;;16.77;2.40;;;;;;;;;;5028006;28;20021;-96
2022/12/24 11:47:54;;;;;;;18.98;2.50;;;;;;;;;;4998446;28;20029;-96
2022/12/24 11:50:46;;;;;;;13.38;2.10;;;;;;;;;;4999218;28;20113;-94
2022/12/24 11:53:17;;;;;;;15.80;2.53;;;;;;;;;;5004656;28;20034;-95
2022/12/24 11:55:43;;;;;;;15.90;3.45;;;;;;;;;;5006461;28;20068;-96
2022/12/24 11:58:15;;;;;;;18.87;2.17;;;;;;;;;;5007042;28;20022;-96
2022/12/24 12:00:44;;;;;;;15.32;2.15;;;;;;;;;;5001265;28;20279;-96
2022/12/24 12:03:22;;;;;;;18.85;2.55;;;;;;;;;;5003148;28;20046;-95
2022/12/24 12:05:47;;;;;;;20.95;2.70;;;;;;;;;;5004673;28;20044;-95
2022/12/24 12:08:17;;;;;;;13.05;2.22;;;;;;;;;;5023122;28;20033;-94
2022/12/24 12:10:42;;;;;;;13.85;2.33;;;;;;;;;;5003989;28;20022;-96
2022/12/24 12:13:14;;;;;;;14.15;2.33;;;;;;;;;;5021329;28;20512;-96
2022/12/24 12:15:42;;;;;;;16.90;3.05;;;;;;;;;;5004510;28;20036;-93
2022/12/24 12:18:12;;;;;;;11.00;2.05;;;;;;;;;;5019747;28;20026;-96
2022/12/24 12:20:40;;;;;;;15.50;2.30;;;;;;;;;;5025319;28;20104;-96
2022/12/24 12:23:05;;;;;;;13.20;2.10;;;;;;;;;;5020593;28;20022;-95
2022/12/24 12:25:47;;;;;;;21.65;3.33;;;;;;;;;;5024665;28;20688;-96
2022/12/24 12:28:17;;;;;;;16.15;2.47;;;;;;;;;;5005972;28;20717;-95
2022/12/24 12:30:45;;;;;;;20.35;2.40;;;;;;;;;;5004529;28;20021;-96
2022/12/24 12:33:15;;;;;;;13.57;2.30;;;;;;;;;;5020325;28;20021;-96
2022/12/24 12:35:42;;;;;;;18.90;2.45;;;;;;;;;;5002704;28;20150;-96
2022/12/24 12:38:12;;;;;;;18.17;2.65;;;;;;;;;;5025835;28;20475;-96
2022/12/24 12:40:52;;;;;;;23.25;2.35;;;;;;;;;;5005810;28;20582;-96
2022/12/24 12:43:37;;;;;;;17.33;2.40;;;;;;;;;;5019450;28;20065;-95
2022/12/24 12:46:12;;;;;;;16.63;2.50;;;;;;;;;;5028270;28;20085;-96
2022/12/24 12:51:28;;;;;;;12.48;2.95;;;;;;;;;;5023020;28;20036;-96
2022/12/24 12:54:19;;;;;;;12.38;2.58;;;;;;;;;;5012233;28;20021;-96
2022/12/24 12:56:49;;;;;;;13.82;2.60;;;;;;;;;;5012703;28;20129;-96
2022/12/24 13:05:57;;;;;;;19.45;2.63;;;;;;;;;;5018037;28;20068;-96
2022/12/24 13:08:54;;;;;;;19.70;2.88;;;;;;;;;;4980552;28;20091;-95
2022/12/24 13:11:29;;;;;;;18.20;3.03;;;;;;;;;;4963383;28;20216;-94
2022/12/24 13:14:02;;;;;;;15.23;3.65;;;;;;;;;;4986122;28;20018;-95
2022/12/24 13:26:18;;;;;;;13.55;3.08;;;;;;;;;;4988854;28;20060;-96
2022/12/24 13:28:50;;;;;;;17.25;3.28;;;;;;;;;;4981895;28;20153;-96
2022/12/24 13:31:18;;;;;;;22.00;3.35;;;;;;;;;;4958742;28;20035;-96
2022/12/24 13:33:43;;;;;;;25.48;3.75;;;;;;;;;;4974465;28;20027;-96
2022/12/24 13:36:10;;;;;;;18.80;3.37;;;;;;;;;;4985232;28;20038;-96
2022/12/24 13:38:39;;;;;;;19.75;3.70;;;;;;;;;;4982027;28;20352;-94
2022/12/24 13:41:24;;;;;;;15.82;3.60;;;;;;;;;;4971065;28;21136;-96
2022/12/24 13:44:03;;;;;;;18.05;3.22;;;;;;;;;;4982361;28;20042;-95
2022/12/24 13:46:47;;;;;;;13.68;3.20;;;;;;;;;;4980944;28;20077;-96
2022/12/24 13:49:23;;;;;;;19.50;4.00;;;;;;;;;;4978719;28;20063;-96
2022/12/24 13:51:49;;;;;;;17.40;3.70;;;;;;;;;;4981058;28;20023;-96
2022/12/24 13:54:17;;;;;;;20.10;3.88;;;;;;;;;;4963090;28;22143;-95
2022/12/24 13:56:42;;;;;;;15.75;3.67;;;;;;;;;;4960689;28;20109;-95
2022/12/24 13:59:19;;;;;;;19.88;3.67;;;;;;;;;;4972187;28;20229;-96
2022/12/24 14:01:44;;;;;;;15.18;3.83;;;;;;;;;;4986199;28;20044;-95
2022/12/24 14:04:20;;;;;;;22.67;4.28;;;;;;;;;;4996387;28;20033;-94
2022/12/24 14:06:49;;;;;;;18.20;3.80;;;;;;;;;;4989759;28;20038;-96
2022/12/24 14:09:19;;;;;;;15.85;3.40;;;;;;;;;;5013704;28;20030;-95
2022/12/24 14:12:10;;;;;;;15.38;3.70;;;;;;;;;;5024881;28;20037;-95
2022/12/24 14:14:39;;;;;;;23.83;3.90;;;;;;;;;;4979170;28;20506;-96
2022/12/24 14:17:37;;;;;;;18.73;3.42;;;;;;;;;;5002076;28;20137;-95
2022/12/24 14:20:06;;;;;;;17.67;2.80;;;;;;;;;;4986618;28;20037;-95
2022/12/24 14:22:33;;;;;;;20.60;3.65;;;;;;;;;;4999472;28;20026;-88
2022/12/24 14:25:00;;;;;;;25.70;3.90;;;;;;;;;;5000112;28;20018;-95
2022/12/24 14:27:42;;;;;;;17.17;3.33;;;;;;;;;;5006420;28;20017;-95
2022/12/24 14:30:15;;;;;;;20.25;3.65;;;;;;;;;;4996362;28;20029;-94
2022/12/24 14:32:40;;;;;;;16.05;3.33;;;;;;;;;;5014028;28;20331;-94
2022/12/24 14:35:05;;;;;;;16.90;3.50;;;;;;;;;;5016637;28;20849;-91
2022/12/24 14:37:31;;;;;;;17.92;4.20;;;;;;;;;;5013483;28;20599;-93
2022/12/24 14:40:16;;;;;;;16.05;3.50;;;;;;;;;;4998011;28;20687;-94
2022/12/24 14:42:45;;;;;;;17.48;3.45;;;;;;;;;;5002734;28;20161;-95
2022/12/24 14:45:18;;;;;;;22.02;3.83;;;;;;;;;;4998866;28;20190;-96
2022/12/24 14:47:43;;;;;;;18.95;3.70;;;;;;;;;;5002387;28;20057;-96
2022/12/24 14:50:28;;;;;;;20.45;3.20;;;;;;;;;;4998262;28;20073;-92
2022/12/24 14:52:56;;;;;;;16.83;3.03;;;;;;;;;;4996374;28;20022;-94
2022/12/24 14:55:31;;;;;;;19.50;3.13;;;;;;;;;;5015505;28;20029;-93
2022/12/24 14:58:15;;;;;;;13.50;2.80;;;;;;;;;;5015189;28;20790;-93
2022/12/24 15:00:44;;;;;;;20.80;3.03;;;;;;;;;;4995506;28;20021;-94
2022/12/24 15:03:11;;;;;;;17.33;3.05;;;;;;;;;;4997864;28;20098;-93
2022/12/24 15:05:36;;;;;;;17.45;3.13;;;;;;;;;;5003989;28;20076;-93
2022/12/24 15:08:03;;;;;;;16.77;3.30;;;;;;;;;;5003102;28;20065;-92
2022/12/24 15:10:33;;;;;;;17.40;2.70;;;;;;;;;;4984669;28;20333;-92
2022/12/24 15:13:01;;;;;;;21.67;3.72;;;;;;;;;;4976444;28;20036;-93